createdAt,value
2017-10-22T00:00:00.427Z,0
2017-10-22T00:01:12.451Z,0
2017-10-22T00:02:24.750Z,0
2017-10-22T00:03:37.393Z,0
2017-10-22T00:04:50.013Z,0
2017-10-22T00:06:01.684Z,0
2017-10-22T00:07:13.336Z,0
2017-10-22T00:08:26.000Z,0
2017-10-22T00:09:38.617Z,0
2017-10-22T00:10:50.897Z,0
2017-10-22T00:12:03.538Z,0
2017-10-22T00:13:15.529Z,0
2017-10-22T00:14:27.501Z,0
2017-10-22T00:15:40.124Z,0
2017-10-22T00:16:52.775Z,0
2017-10-22T00:18:05.414Z,0
2017-10-22T00:19:17.736Z,0
2017-10-22T00:20:30.053Z,0
2017-10-22T00:21:42.351Z,0
2017-10-22T00:22:54.972Z,0
2017-10-22T00:24:07.622Z,0
2017-10-22T00:25:19.953Z,0
2017-10-22T00:26:31.911Z,0
2017-10-22T00:27:44.234Z,0
2017-10-22T00:28:56.891Z,0
2017-10-22T00:30:09.221Z,0
2017-10-22T00:31:21.544Z,0
2017-10-22T00:32:34.190Z,0
2017-10-22T00:33:46.507Z,0
2017-10-22T00:34:58.828Z,0
2017-10-22T00:36:10.820Z,0
2017-10-22T00:37:22.801Z,0
2017-10-22T00:38:35.469Z,0
2017-10-22T00:39:47.462Z,0
2017-10-22T00:41:00.104Z,0
2017-10-22T00:42:12.155Z,0
2017-10-22T00:43:24.469Z,0
2017-10-22T00:44:37.119Z,0
2017-10-22T00:45:49.433Z,0
2017-10-22T00:47:01.767Z,0
2017-10-22T00:48:14.442Z,0
2017-10-22T00:49:27.080Z,0
2017-10-22T00:50:39.418Z,0
2017-10-22T00:51:52.033Z,0
2017-10-22T00:53:04.640Z,0
2017-10-22T00:54:17.266Z,0
2017-10-22T00:55:29.887Z,0
2017-10-22T00:56:42.215Z,0
2017-10-22T00:57:54.845Z,0
2017-10-22T00:59:06.837Z,0
2017-10-22T01:00:19.465Z,0
2017-10-22T01:01:32.083Z,0
2017-10-22T01:02:44.729Z,0
2017-10-22T01:03:57.049Z,0
2017-10-22T01:05:09.687Z,0
2017-10-22T01:06:22.008Z,0
2017-10-22T01:07:34.008Z,0
2017-10-22T01:08:46.611Z,0
2017-10-22T01:09:58.929Z,0
2017-10-22T01:11:10.932Z,0
2017-10-22T01:12:23.247Z,0
2017-10-22T01:13:35.265Z,0
2017-10-22T01:14:47.603Z,0
2017-10-22T01:16:00.267Z,0
2017-10-22T01:17:12.256Z,0
2017-10-22T01:18:24.565Z,0
2017-10-22T01:19:36.895Z,0
2017-10-22T01:20:49.531Z,0
2017-10-22T01:22:02.165Z,0
2017-10-22T01:23:14.804Z,0
2017-10-22T01:24:27.123Z,0
2017-10-22T01:25:39.429Z,0
2017-10-22T01:26:52.070Z,0
2017-10-22T01:28:04.732Z,0
2017-10-22T01:29:16.705Z,0
2017-10-22T01:30:29.361Z,0
2017-10-22T01:31:41.693Z,0
2017-10-22T01:32:54.323Z,0
2017-10-22T01:34:06.616Z,0
2017-10-22T01:35:19.228Z,0
2017-10-22T01:36:31.877Z,0
2017-10-22T01:37:43.857Z,0
2017-10-22T01:38:56.491Z,0
2017-10-22T01:40:08.827Z,0
2017-10-22T01:41:21.486Z,0
2017-10-22T01:42:34.114Z,0
2017-10-22T01:43:46.435Z,0
2017-10-22T01:44:58.426Z,0
2017-10-22T01:46:10.747Z,0
2017-10-22T01:47:23.374Z,0
2017-10-22T01:48:36.027Z,0
2017-10-22T01:49:48.335Z,0
2017-10-22T01:51:00.629Z,0
2017-10-22T01:52:13.280Z,0
2017-10-22T01:53:25.297Z,0
2017-10-22T01:54:37.930Z,0
2017-10-22T01:55:50.537Z,0
2017-10-22T01:57:03.186Z,0
2017-10-22T01:58:15.157Z,0
2017-10-22T01:59:27.462Z,0
2017-10-22T02:00:39.794Z,0
2017-10-22T02:01:52.411Z,0
2017-10-22T02:03:05.058Z,0
2017-10-22T02:04:17.359Z,0
2017-10-22T02:05:29.982Z,0
2017-10-22T02:06:42.297Z,0
2017-10-22T02:07:54.607Z,0
2017-10-22T02:09:07.190Z,0
2017-10-22T02:10:19.513Z,0
2017-10-22T02:11:31.856Z,0
2017-10-22T02:12:44.507Z,0
2017-10-22T02:13:56.803Z,0
2017-10-22T02:15:09.435Z,0
2017-10-22T02:16:21.738Z,0
2017-10-22T02:17:34.375Z,0
2017-10-22T02:18:46.680Z,0
2017-10-22T02:19:59.008Z,0
2017-10-22T02:21:10.984Z,0
2017-10-22T02:22:23.608Z,0
2017-10-22T02:23:36.230Z,0
2017-10-22T02:24:48.850Z,0
2017-10-22T02:26:01.157Z,0
2017-10-22T02:27:13.795Z,0
2017-10-22T02:28:26.416Z,0
2017-10-22T02:29:38.748Z,0
2017-10-22T02:30:51.390Z,0
2017-10-22T02:32:04.032Z,0
2017-10-22T02:33:16.656Z,0
2017-10-22T02:34:29.286Z,0
2017-10-22T02:35:41.573Z,0
2017-10-22T02:36:54.190Z,0
2017-10-22T02:38:06.508Z,0
2017-10-22T02:39:19.108Z,0
2017-10-22T02:40:31.421Z,0
2017-10-22T02:41:43.750Z,0
2017-10-22T02:42:56.317Z,0
2017-10-22T02:44:08.638Z,0
2017-10-22T02:45:21.236Z,0
2017-10-22T02:46:33.605Z,0
2017-10-22T02:47:46.239Z,0
2017-10-22T02:48:58.878Z,0
2017-10-22T02:50:11.213Z,0
2017-10-22T02:51:23.865Z,0
2017-10-22T02:52:36.509Z,0
2017-10-22T02:53:49.151Z,0
2017-10-22T02:55:01.466Z,0
2017-10-22T02:56:13.805Z,0
2017-10-22T02:57:25.810Z,0
2017-10-22T02:58:38.153Z,0
2017-10-22T02:59:50.773Z,0
2017-10-22T03:01:03.407Z,0
2017-10-22T03:02:15.748Z,0
2017-10-22T03:03:27.714Z,0
2017-10-22T03:04:40.010Z,0
2017-10-22T03:05:52.655Z,0
2017-10-22T03:07:05.247Z,0
2017-10-22T03:08:17.876Z,0
2017-10-22T03:09:30.193Z,0
2017-10-22T03:10:42.819Z,0
2017-10-22T03:11:55.469Z,0
2017-10-22T03:13:08.087Z,0
2017-10-22T03:14:20.392Z,0
2017-10-22T03:15:32.995Z,0
2017-10-22T03:16:44.973Z,0
2017-10-22T03:17:56.945Z,0
2017-10-22T03:19:09.592Z,0
2017-10-22T03:20:22.259Z,0
2017-10-22T03:21:34.253Z,0
2017-10-22T03:22:46.566Z,0
2017-10-22T03:23:58.890Z,0
2017-10-22T03:25:11.194Z,0
2017-10-22T03:26:23.831Z,0
2017-10-22T03:27:36.457Z,0
2017-10-22T03:28:48.429Z,0
2017-10-22T03:30:01.052Z,0
2017-10-22T03:31:13.399Z,0
2017-10-22T03:32:25.706Z,0
2017-10-22T03:33:38.338Z,0
2017-10-22T03:34:50.997Z,0
2017-10-22T03:36:02.977Z,0
2017-10-22T03:37:15.596Z,0
2017-10-22T03:38:28.224Z,0
2017-10-22T03:39:40.535Z,0
2017-10-22T03:40:53.128Z,0
2017-10-22T03:42:05.449Z,0
2017-10-22T03:43:17.780Z,0
2017-10-22T03:44:30.418Z,0
2017-10-22T03:45:43.040Z,0
2017-10-22T03:46:55.687Z,0
2017-10-22T03:48:07.679Z,0
2017-10-22T03:49:20.382Z,0
2017-10-22T03:50:33.019Z,0
2017-10-22T03:51:45.636Z,0
2017-10-22T03:52:58.540Z,0
2017-10-22T03:54:10.837Z,0
2017-10-22T03:55:23.128Z,0
2017-10-22T03:56:35.129Z,0
2017-10-22T03:57:47.753Z,0
2017-10-22T03:59:00.395Z,0
2017-10-22T04:00:12.713Z,0
2017-10-22T04:01:25.387Z,0
2017-10-22T04:02:37.720Z,0
2017-10-22T04:03:50.349Z,0
2017-10-22T04:05:02.663Z,0
2017-10-22T04:06:15.297Z,0
2017-10-22T04:07:27.933Z,0
2017-10-22T04:08:39.924Z,0
2017-10-22T04:09:52.232Z,0
2017-10-22T04:11:04.872Z,0
2017-10-22T04:12:17.547Z,0
2017-10-22T04:13:30.185Z,0
2017-10-22T04:14:42.500Z,0
2017-10-22T04:15:55.103Z,0
2017-10-22T04:17:07.407Z,0
2017-10-22T04:18:20.041Z,0
2017-10-22T04:19:32.346Z,0
2017-10-22T04:20:44.666Z,0
2017-10-22T04:21:56.969Z,0
2017-10-22T04:23:09.635Z,0
2017-10-22T04:24:21.940Z,0
2017-10-22T04:25:34.492Z,0
2017-10-22T04:26:47.109Z,0
2017-10-22T04:27:59.416Z,0
2017-10-22T04:29:12.052Z,0
2017-10-22T04:30:24.697Z,0
2017-10-22T04:31:37.327Z,0
2017-10-22T04:32:49.316Z,0
2017-10-22T04:34:01.969Z,0
2017-10-22T04:35:13.612Z,0
2017-10-22T04:36:26.233Z,0
2017-10-22T04:37:38.524Z,0
2017-10-22T04:38:50.525Z,0
2017-10-22T04:40:03.196Z,0
2017-10-22T04:41:15.189Z,0
2017-10-22T04:42:27.484Z,0
2017-10-22T04:43:40.109Z,0
2017-10-22T04:44:52.719Z,0
2017-10-22T04:46:04.997Z,0
2017-10-22T04:47:17.943Z,0
2017-10-22T04:48:30.234Z,0
2017-10-22T04:49:42.863Z,0
2017-10-22T04:50:55.185Z,0
2017-10-22T04:52:07.193Z,0
2017-10-22T04:53:19.825Z,0
2017-10-22T04:54:32.110Z,0
2017-10-22T04:55:44.435Z,0
2017-10-22T04:56:57.058Z,0
2017-10-22T04:58:09.357Z,0
2017-10-22T04:59:21.971Z,0
2017-10-22T05:00:34.312Z,0
2017-10-22T05:01:46.965Z,0
2017-10-22T05:02:59.612Z,0
2017-10-22T05:04:11.625Z,0
2017-10-22T05:05:24.274Z,0
2017-10-22T05:06:36.930Z,0
2017-10-22T05:07:49.241Z,0
2017-10-22T05:09:01.865Z,0
2017-10-22T05:10:14.155Z,0
2017-10-22T05:11:26.782Z,0
2017-10-22T05:12:39.098Z,0
2017-10-22T05:13:51.702Z,0
2017-10-22T05:15:04.647Z,0
2017-10-22T05:16:16.614Z,0
2017-10-22T05:17:29.288Z,0
2017-10-22T05:18:41.596Z,0
2017-10-22T05:19:54.225Z,0
2017-10-22T05:21:06.526Z,4
2017-10-22T05:22:18.856Z,0
2017-10-22T05:23:31.187Z,4
2017-10-22T05:24:43.804Z,8
2017-10-22T05:25:55.813Z,4
2017-10-22T05:27:08.499Z,12
2017-10-22T05:28:20.796Z,12
2017-10-22T05:29:33.115Z,8
2017-10-22T05:30:45.754Z,12
2017-10-22T05:31:58.386Z,12
2017-10-22T05:33:10.682Z,8
2017-10-22T05:34:23.351Z,12
2017-10-22T05:35:35.706Z,24
2017-10-22T05:36:47.718Z,24
2017-10-22T05:38:00.034Z,32
2017-10-22T05:39:12.312Z,40
2017-10-22T05:40:24.598Z,48
2017-10-22T05:41:37.498Z,56
2017-10-22T05:42:50.123Z,64
2017-10-22T05:44:02.440Z,76
2017-10-22T05:45:15.080Z,80
2017-10-22T05:46:27.738Z,100
2017-10-22T05:47:39.717Z,112
2017-10-22T05:48:52.370Z,120
2017-10-22T05:50:04.663Z,124
2017-10-22T05:51:16.981Z,124
2017-10-22T05:52:29.659Z,132
2017-10-22T05:53:41.974Z,140
2017-10-22T05:54:54.620Z,152
2017-10-22T05:56:06.641Z,168
2017-10-22T05:57:18.637Z,180
2017-10-22T05:58:31.257Z,188
2017-10-22T05:59:43.912Z,212
2017-10-22T06:00:56.528Z,248
2017-10-22T06:02:09.146Z,292
2017-10-22T06:03:21.747Z,348
2017-10-22T06:04:33.739Z,408
2017-10-22T06:05:46.024Z,472
2017-10-22T06:06:58.326Z,532
2017-10-22T06:08:10.956Z,604
2017-10-22T06:09:23.578Z,684
2017-10-22T06:10:35.582Z,772
2017-10-22T06:11:47.913Z,868
2017-10-22T06:13:00.563Z,972
2017-10-22T06:14:13.204Z,1072
2017-10-22T06:15:25.172Z,1152
2017-10-22T06:16:37.834Z,1236
2017-10-22T06:17:50.109Z,1320
2017-10-22T06:19:02.455Z,1408
2017-10-22T06:20:15.104Z,1504
2017-10-22T06:21:27.726Z,1608
2017-10-22T06:22:39.729Z,1708
2017-10-22T06:23:52.371Z,1792
2017-10-22T06:25:04.692Z,1892
2017-10-22T06:26:16.983Z,2000
2017-10-22T06:27:29.607Z,2120
2017-10-22T06:28:41.903Z,2216
2017-10-22T06:29:54.198Z,2276
2017-10-22T06:31:06.519Z,2292
2017-10-22T06:32:19.169Z,2244
2017-10-22T06:33:31.803Z,2164
2017-10-22T06:34:44.130Z,2060
2017-10-22T06:35:56.426Z,1952
2017-10-22T06:37:08.728Z,1804
2017-10-22T06:38:21.348Z,1656
2017-10-22T06:39:34.005Z,1512
2017-10-22T06:40:46.639Z,1420
2017-10-22T06:41:58.959Z,1472
2017-10-22T06:43:11.580Z,1680
2017-10-22T06:44:23.901Z,2016
2017-10-22T06:45:36.552Z,2372
2017-10-22T06:46:48.904Z,2684
2017-10-22T06:48:00.896Z,2932
2017-10-22T06:49:13.531Z,3096
2017-10-22T06:50:25.820Z,3064
2017-10-22T06:51:38.137Z,2968
2017-10-22T06:52:50.766Z,2860
2017-10-22T06:54:03.411Z,2748
2017-10-22T06:55:15.736Z,2656
2017-10-22T06:56:28.365Z,2704
2017-10-22T06:57:40.971Z,2780
2017-10-22T06:58:53.598Z,2884
2017-10-22T07:00:06.241Z,3072
2017-10-22T07:01:18.223Z,3796
2017-10-22T07:02:30.528Z,4264
2017-10-22T07:03:43.148Z,4352
2017-10-22T07:04:55.750Z,3032
2017-10-22T07:06:08.062Z,2788
2017-10-22T07:07:20.686Z,3692
2017-10-22T07:08:33.012Z,4208
2017-10-22T07:09:45.655Z,4228
2017-10-22T07:10:57.984Z,4480
2017-10-22T07:12:10.304Z,5152
2017-10-22T07:13:22.970Z,5080
2017-10-22T07:14:35.582Z,4620
2017-10-22T07:15:48.200Z,4340
2017-10-22T07:17:00.849Z,4448
2017-10-22T07:18:13.475Z,4312
2017-10-22T07:19:26.098Z,4132
2017-10-22T07:20:38.717Z,3880
2017-10-22T07:21:51.385Z,3808
2017-10-22T07:23:03.682Z,3732
2017-10-22T07:24:16.350Z,3664
2017-10-22T07:25:28.340Z,3636
2017-10-22T07:26:40.648Z,3660
2017-10-22T07:27:52.662Z,3680
2017-10-22T07:29:04.981Z,3728
2017-10-22T07:30:17.614Z,3752
2017-10-22T07:31:30.245Z,3780
2017-10-22T07:32:42.893Z,3756
2017-10-22T07:33:55.220Z,3772
2017-10-22T07:35:07.863Z,3980
2017-10-22T07:36:20.482Z,4680
2017-10-22T07:37:33.108Z,5448
2017-10-22T07:38:45.421Z,6192
2017-10-22T07:39:57.746Z,7984
2017-10-22T07:41:09.745Z,8696
2017-10-22T07:42:22.404Z,8004
2017-10-22T07:43:35.039Z,7688
2017-10-22T07:44:47.678Z,9052
2017-10-22T07:46:00.319Z,9668
2017-10-22T07:47:12.974Z,8648
2017-10-22T07:48:25.613Z,7552
2017-10-22T07:49:37.658Z,6348
2017-10-22T07:50:49.983Z,5332
2017-10-22T07:52:02.605Z,4808
2017-10-22T07:53:15.250Z,5052
2017-10-22T07:54:27.238Z,5628
2017-10-22T07:55:39.913Z,4348
2017-10-22T07:56:52.560Z,3340
2017-10-22T07:58:05.217Z,2968
2017-10-22T07:59:17.878Z,3076
2017-10-22T08:00:30.213Z,3400
2017-10-22T08:01:42.971Z,3700
2017-10-22T08:02:55.659Z,3976
2017-10-22T08:04:08.309Z,4448
2017-10-22T08:05:20.938Z,5092
2017-10-22T08:06:33.575Z,5636
2017-10-22T08:07:46.191Z,6092
2017-10-22T08:08:57.862Z,6372
2017-10-22T08:10:10.204Z,6592
2017-10-22T08:11:22.521Z,6828
2017-10-22T08:12:35.152Z,6984
2017-10-22T08:13:47.773Z,7164
2017-10-22T08:15:00.073Z,7252
2017-10-22T08:16:12.385Z,7252
2017-10-22T08:17:25.031Z,7460
2017-10-22T08:18:37.680Z,7752
2017-10-22T08:19:50.294Z,7896
2017-10-22T08:21:02.948Z,8020
2017-10-22T08:22:15.609Z,8412
2017-10-22T08:23:28.240Z,8728
2017-10-22T08:24:40.534Z,9028
2017-10-22T08:25:52.529Z,9216
2017-10-22T08:27:05.179Z,9572
2017-10-22T08:28:17.123Z,9768
2017-10-22T08:29:29.444Z,9740
2017-10-22T08:30:42.116Z,9652
2017-10-22T08:31:54.085Z,9896
2017-10-22T08:33:05.750Z,10512
2017-10-22T08:34:17.749Z,11344
2017-10-22T08:35:30.366Z,11312
2017-10-22T08:36:42.991Z,9920
2017-10-22T08:37:55.613Z,8284
2017-10-22T08:39:07.949Z,7500
2017-10-22T08:40:20.256Z,7564
2017-10-22T08:41:32.578Z,8060
2017-10-22T08:42:45.215Z,8684
2017-10-22T08:43:57.864Z,8728
2017-10-22T08:45:10.189Z,7972
2017-10-22T08:46:22.511Z,6548
2017-10-22T08:47:34.805Z,5360
2017-10-22T08:48:47.472Z,4744
2017-10-22T08:50:00.115Z,4792
2017-10-22T08:51:12.442Z,4968
2017-10-22T08:52:24.733Z,5300
2017-10-22T08:53:37.043Z,6420
2017-10-22T08:54:49.339Z,6496
2017-10-22T08:56:01.974Z,6432
2017-10-22T08:57:14.269Z,6664
2017-10-22T08:58:25.941Z,6824
2017-10-22T08:59:38.258Z,7236
2017-10-22T09:00:50.541Z,7520
2017-10-22T09:02:03.152Z,7768
2017-10-22T09:03:15.776Z,8008
2017-10-22T09:04:28.114Z,8508
2017-10-22T09:05:40.407Z,9312
2017-10-22T09:06:53.049Z,9644
2017-10-22T09:08:05.373Z,10484
2017-10-22T09:09:17.698Z,10360
2017-10-22T09:10:30.362Z,10360
2017-10-22T09:11:43.022Z,9892
2017-10-22T09:12:55.362Z,9092
2017-10-22T09:14:08.010Z,7820
2017-10-22T09:15:20.347Z,7252
2017-10-22T09:16:33.000Z,7712
2017-10-22T09:17:45.296Z,7752
2017-10-22T09:18:57.914Z,7600
2017-10-22T09:20:10.605Z,7064
2017-10-22T09:21:22.945Z,6352
2017-10-22T09:22:35.242Z,5724
2017-10-22T09:23:47.874Z,5216
2017-10-22T09:25:00.194Z,4824
2017-10-22T09:26:12.841Z,4652
2017-10-22T09:27:25.131Z,4680
2017-10-22T09:28:37.428Z,4664
2017-10-22T09:29:49.748Z,4700
2017-10-22T09:31:02.415Z,4828
2017-10-22T09:32:15.086Z,4960
2017-10-22T09:33:27.724Z,5028
2017-10-22T09:34:40.359Z,5076
2017-10-22T09:35:53.001Z,4984
2017-10-22T09:37:05.647Z,4908
2017-10-22T09:38:17.971Z,4812
2017-10-22T09:39:30.617Z,4792
2017-10-22T09:40:43.176Z,4768
2017-10-22T09:41:55.506Z,4912
2017-10-22T09:43:08.150Z,4952
2017-10-22T09:44:20.798Z,5900
2017-10-22T09:45:33.456Z,5628
2017-10-22T09:46:46.108Z,6420
2017-10-22T09:47:58.121Z,7452
2017-10-22T09:49:10.452Z,6252
2017-10-22T09:50:22.457Z,7472
2017-10-22T09:51:34.770Z,7664
2017-10-22T09:52:47.403Z,7512
2017-10-22T09:54:00.015Z,7568
2017-10-22T09:55:13.128Z,6560
2017-10-22T09:56:25.779Z,7572
2017-10-22T09:57:38.115Z,6772
2017-10-22T09:58:50.440Z,5804
2017-10-22T10:00:03.085Z,5504
2017-10-22T10:01:15.415Z,6540
2017-10-22T10:02:27.704Z,6048
2017-10-22T10:03:40.005Z,5716
2017-10-22T10:04:52.626Z,5244
2017-10-22T10:06:04.939Z,5968
2017-10-22T10:07:17.596Z,5572
2017-10-22T10:08:29.573Z,6788
2017-10-22T10:09:42.216Z,8860
2017-10-22T10:10:54.204Z,9660
2017-10-22T10:12:06.193Z,9656
2017-10-22T10:13:18.193Z,10212
2017-10-22T10:14:30.844Z,11656
2017-10-22T10:15:43.507Z,9852
2017-10-22T10:16:56.146Z,8208
2017-10-22T10:18:08.798Z,7280
2017-10-22T10:19:21.668Z,6444
2017-10-22T10:20:33.986Z,7408
2017-10-22T10:21:45.987Z,8452
2017-10-22T10:22:57.659Z,8596
2017-10-22T10:24:09.951Z,7576
2017-10-22T10:25:22.260Z,8760
2017-10-22T10:26:34.872Z,10876
2017-10-22T10:27:47.193Z,10000
2017-10-22T10:28:59.505Z,10452
2017-10-22T10:30:11.169Z,8308
2017-10-22T10:31:23.802Z,6956
2017-10-22T10:32:36.101Z,7348
2017-10-22T10:33:48.414Z,8808
2017-10-22T10:35:00.710Z,11804
2017-10-22T10:36:13.037Z,14556
2017-10-22T10:37:25.347Z,14704
2017-10-22T10:38:37.993Z,14176
2017-10-22T10:39:50.649Z,14372
2017-10-22T10:41:02.939Z,15060
2017-10-22T10:42:15.237Z,15484
2017-10-22T10:43:27.850Z,15480
2017-10-22T10:44:39.886Z,15556
2017-10-22T10:45:51.849Z,14896
2017-10-22T10:47:04.158Z,12556
2017-10-22T10:48:16.759Z,10352
2017-10-22T10:49:29.064Z,9300
2017-10-22T10:50:41.677Z,10828
2017-10-22T10:51:53.648Z,12724
2017-10-22T10:53:05.948Z,14004
2017-10-22T10:54:17.944Z,14480
2017-10-22T10:55:29.957Z,14736
2017-10-22T10:56:42.605Z,15040
2017-10-22T10:57:55.262Z,15100
2017-10-22T10:59:07.623Z,14764
2017-10-22T11:00:19.625Z,12800
2017-10-22T11:01:31.616Z,10604
2017-10-22T11:02:44.263Z,9760
2017-10-22T11:03:56.951Z,10924
2017-10-22T11:05:09.573Z,12980
2017-10-22T11:06:21.903Z,14676
2017-10-22T11:07:34.538Z,15896
2017-10-22T11:08:46.869Z,16200
2017-10-22T11:09:59.487Z,15092
2017-10-22T11:11:11.775Z,13412
2017-10-22T11:12:24.100Z,11688
2017-10-22T11:13:36.446Z,9640
2017-10-22T11:14:49.074Z,9452
2017-10-22T11:16:01.389Z,9372
2017-10-22T11:17:13.385Z,8516
2017-10-22T11:18:25.954Z,7356
2017-10-22T11:19:38.606Z,6624
2017-10-22T11:20:50.924Z,6352
2017-10-22T11:22:03.567Z,6420
2017-10-22T11:23:15.891Z,6632
2017-10-22T11:24:28.190Z,6724
2017-10-22T11:25:40.848Z,7452
2017-10-22T11:26:53.157Z,8440
2017-10-22T11:28:05.811Z,8576
2017-10-22T11:29:18.114Z,8088
2017-10-22T11:30:30.459Z,8044
2017-10-22T11:31:42.791Z,7388
2017-10-22T11:32:55.429Z,7000
2017-10-22T11:34:07.096Z,7076
2017-10-22T11:35:19.416Z,7280
2017-10-22T11:36:31.745Z,7712
2017-10-22T11:37:43.429Z,8424
2017-10-22T11:38:56.060Z,8788
2017-10-22T11:40:08.626Z,9004
2017-10-22T11:41:21.249Z,9060
2017-10-22T11:42:33.574Z,10616
2017-10-22T11:43:45.862Z,12856
2017-10-22T11:44:58.510Z,14440
2017-10-22T11:46:10.518Z,13736
2017-10-22T11:47:22.855Z,11920
2017-10-22T11:48:35.163Z,9916
2017-10-22T11:49:47.490Z,8648
2017-10-22T11:51:00.116Z,8220
2017-10-22T11:52:12.429Z,8444
2017-10-22T11:53:24.726Z,9828
2017-10-22T11:54:37.393Z,9860
2017-10-22T11:55:49.720Z,9848
2017-10-22T11:57:02.042Z,10212
2017-10-22T11:58:14.366Z,10356
2017-10-22T11:59:26.662Z,9728
2017-10-22T12:00:38.992Z,9440
2017-10-22T12:01:51.296Z,9700
2017-10-22T12:03:03.617Z,9680
2017-10-22T12:04:16.259Z,9788
2017-10-22T12:05:28.574Z,9248
2017-10-22T12:06:40.908Z,9088
2017-10-22T12:07:53.550Z,9528
2017-10-22T12:09:06.223Z,9608
2017-10-22T12:10:18.843Z,10324
2017-10-22T12:11:31.468Z,10628
2017-10-22T12:12:43.812Z,9924
2017-10-22T12:13:56.109Z,9364
2017-10-22T12:15:08.728Z,8896
2017-10-22T12:16:21.378Z,9636
2017-10-22T12:17:33.672Z,10764
2017-10-22T12:18:45.646Z,11148
2017-10-22T12:19:57.655Z,10328
2017-10-22T12:21:09.306Z,8952
2017-10-22T12:22:21.603Z,7888
2017-10-22T12:23:34.174Z,7452
2017-10-22T12:24:46.792Z,7072
2017-10-22T12:25:59.405Z,7128
2017-10-22T12:27:11.385Z,7136
2017-10-22T12:28:23.676Z,7156
2017-10-22T12:29:36.295Z,6884
2017-10-22T12:30:48.949Z,6576
2017-10-22T12:32:01.605Z,6416
2017-10-22T12:33:13.902Z,6528
2017-10-22T12:34:26.564Z,7280
2017-10-22T12:35:38.913Z,8728
2017-10-22T12:36:51.573Z,9872
2017-10-22T12:38:04.211Z,10652
2017-10-22T12:39:16.516Z,10220
2017-10-22T12:40:28.835Z,9052
2017-10-22T12:41:41.145Z,8180
2017-10-22T12:42:53.752Z,8732
2017-10-22T12:44:06.373Z,7900
2017-10-22T12:45:18.976Z,8004
2017-10-22T12:46:31.616Z,7916
2017-10-22T12:47:43.941Z,6868
2017-10-22T12:48:55.932Z,6348
2017-10-22T12:50:08.276Z,6228
2017-10-22T12:51:20.601Z,6180
2017-10-22T12:52:32.917Z,6392
2017-10-22T12:53:45.234Z,5804
2017-10-22T12:54:57.531Z,5696
2017-10-22T12:56:10.155Z,5532
2017-10-22T12:57:22.458Z,5508
2017-10-22T12:58:34.128Z,5164
2017-10-22T12:59:46.779Z,4752
2017-10-22T13:00:58.737Z,4600
2017-10-22T13:02:11.039Z,4356
2017-10-22T13:03:23.393Z,4204
2017-10-22T13:04:35.715Z,4168
2017-10-22T13:05:48.372Z,4092
2017-10-22T13:07:00.989Z,4080
2017-10-22T13:08:12.986Z,4412
2017-10-22T13:09:25.362Z,4956
2017-10-22T13:10:37.982Z,5728
2017-10-22T13:11:50.267Z,7176
2017-10-22T13:13:02.589Z,8988
2017-10-22T13:14:14.587Z,9772
2017-10-22T13:15:26.895Z,10432
2017-10-22T13:16:39.230Z,10752
2017-10-22T13:17:51.526Z,10524
2017-10-22T13:19:03.856Z,9660
2017-10-22T13:20:15.864Z,9512
2017-10-22T13:21:28.169Z,8868
2017-10-22T13:22:40.502Z,8040
2017-10-22T13:23:52.830Z,6968
2017-10-22T13:25:05.155Z,6096
2017-10-22T13:26:17.779Z,5508
2017-10-22T13:27:30.087Z,5388
2017-10-22T13:28:42.728Z,5628
2017-10-22T13:29:54.732Z,6064
2017-10-22T13:31:07.349Z,6728
2017-10-22T13:32:19.673Z,6960
2017-10-22T13:33:31.970Z,7208
2017-10-22T13:34:44.598Z,7192
2017-10-22T13:35:56.933Z,7220
2017-10-22T13:37:09.556Z,7416
2017-10-22T13:38:21.870Z,6504
2017-10-22T13:39:34.094Z,5784
2017-10-22T13:40:46.723Z,5344
2017-10-22T13:41:59.358Z,5404
2017-10-22T13:43:12.006Z,6364
2017-10-22T13:44:24.332Z,7596
2017-10-22T13:45:36.964Z,8632
2017-10-22T13:46:49.575Z,9060
2017-10-22T13:48:02.223Z,8436
2017-10-22T13:49:14.853Z,7408
2017-10-22T13:50:26.832Z,6428
2017-10-22T13:51:39.157Z,6056
2017-10-22T13:52:51.451Z,6028
2017-10-22T13:54:04.083Z,6092
2017-10-22T13:55:16.719Z,6004
2017-10-22T13:56:29.337Z,5848
2017-10-22T13:57:41.983Z,5724
2017-10-22T13:58:54.624Z,5428
2017-10-22T14:00:06.950Z,5076
2017-10-22T14:01:19.611Z,4512
2017-10-22T14:02:31.918Z,3920
2017-10-22T14:03:44.243Z,3508
2017-10-22T14:04:56.548Z,3280
2017-10-22T14:06:08.868Z,3076
2017-10-22T14:07:21.485Z,3104
2017-10-22T14:08:34.121Z,3144
2017-10-22T14:09:46.439Z,3040
2017-10-22T14:10:59.055Z,3080
2017-10-22T14:12:11.706Z,3396
2017-10-22T14:13:24.029Z,3604
2017-10-22T14:14:36.675Z,3564
2017-10-22T14:15:48.643Z,3372
2017-10-22T14:17:00.960Z,3440
2017-10-22T14:18:13.258Z,3560
2017-10-22T14:19:25.562Z,3268
2017-10-22T14:20:37.570Z,2864
2017-10-22T14:21:49.923Z,2356
2017-10-22T14:23:02.592Z,1896
2017-10-22T14:24:15.216Z,1860
2017-10-22T14:25:27.507Z,2360
2017-10-22T14:26:39.825Z,2904
2017-10-22T14:27:52.452Z,3088
2017-10-22T14:29:04.794Z,2712
2017-10-22T14:30:17.115Z,2232
2017-10-22T14:31:29.768Z,1912
2017-10-22T14:32:42.431Z,1680
2017-10-22T14:33:55.102Z,1536
2017-10-22T14:35:07.425Z,1504
2017-10-22T14:36:20.048Z,1616
2017-10-22T14:37:32.685Z,1680
2017-10-22T14:38:45.333Z,1756
2017-10-22T14:39:57.658Z,1820
2017-10-22T14:41:09.326Z,1760
2017-10-22T14:42:21.962Z,1688
2017-10-22T14:43:34.617Z,1640
2017-10-22T14:44:46.944Z,1596
2017-10-22T14:45:59.579Z,1620
2017-10-22T14:47:12.223Z,1676
2017-10-22T14:48:24.844Z,1640
2017-10-22T14:49:37.469Z,1448
2017-10-22T14:50:50.111Z,1384
2017-10-22T14:52:02.750Z,1448
2017-10-22T14:53:15.056Z,1464
2017-10-22T14:54:27.377Z,1356
2017-10-22T14:55:39.739Z,1268
2017-10-22T14:56:51.729Z,1288
2017-10-22T14:58:04.069Z,1384
2017-10-22T14:59:16.407Z,1524
2017-10-22T15:00:28.398Z,1676
2017-10-22T15:01:41.044Z,1724
2017-10-22T15:02:53.739Z,1760
2017-10-22T15:04:06.381Z,1724
2017-10-22T15:05:18.662Z,1640
2017-10-22T15:06:30.990Z,1584
2017-10-22T15:07:43.278Z,1552
2017-10-22T15:08:55.902Z,1500
2017-10-22T15:10:08.587Z,1448
2017-10-22T15:11:21.188Z,1412
2017-10-22T15:12:33.170Z,1380
2017-10-22T15:13:45.510Z,1368
2017-10-22T15:14:58.152Z,1340
2017-10-22T15:16:10.445Z,1324
2017-10-22T15:17:23.070Z,1328
2017-10-22T15:18:35.062Z,1368
2017-10-22T15:19:47.682Z,1404
2017-10-22T15:21:00.327Z,1396
2017-10-22T15:22:12.651Z,1368
2017-10-22T15:23:24.623Z,1308
2017-10-22T15:24:36.947Z,1216
2017-10-22T15:25:49.592Z,1136
2017-10-22T15:27:02.208Z,1080
2017-10-22T15:28:14.209Z,988
2017-10-22T15:29:26.207Z,904
2017-10-22T15:30:38.520Z,832
2017-10-22T15:31:51.139Z,796
2017-10-22T15:33:03.416Z,772
2017-10-22T15:34:15.762Z,748
2017-10-22T15:35:28.375Z,708
2017-10-22T15:36:40.999Z,668
2017-10-22T15:37:53.325Z,628
2017-10-22T15:39:05.916Z,584
2017-10-22T15:40:18.585Z,560
2017-10-22T15:41:30.907Z,528
2017-10-22T15:42:42.907Z,496
2017-10-22T15:43:55.549Z,472
2017-10-22T15:45:07.533Z,440
2017-10-22T15:46:19.845Z,412
2017-10-22T15:47:32.132Z,380
2017-10-22T15:48:44.099Z,360
2017-10-22T15:49:56.408Z,328
2017-10-22T15:51:09.069Z,284
2017-10-22T15:52:21.047Z,252
2017-10-22T15:53:33.363Z,236
2017-10-22T15:54:45.684Z,192
2017-10-22T15:55:57.985Z,180
2017-10-22T15:57:10.625Z,184
2017-10-22T15:58:23.268Z,168
2017-10-22T15:59:35.571Z,152
2017-10-22T16:00:48.463Z,132
2017-10-22T16:02:01.107Z,112
2017-10-22T16:03:13.757Z,96
2017-10-22T16:04:25.725Z,84
2017-10-22T16:05:38.370Z,76
2017-10-22T16:06:50.662Z,64
2017-10-22T16:08:02.970Z,56
2017-10-22T16:09:15.586Z,48
2017-10-22T16:10:28.207Z,40
2017-10-22T16:11:40.874Z,32
2017-10-22T16:12:53.171Z,24
2017-10-22T16:14:05.135Z,20
2017-10-22T16:15:17.734Z,20
2017-10-22T16:16:30.073Z,16
2017-10-22T16:17:42.383Z,16
2017-10-22T16:18:54.698Z,8
2017-10-22T16:20:06.690Z,8
2017-10-22T16:21:19.293Z,8
2017-10-22T16:22:31.604Z,4
2017-10-22T16:23:44.256Z,4
2017-10-22T16:24:56.601Z,4
2017-10-22T16:26:08.898Z,0
2017-10-22T16:27:21.551Z,4
2017-10-22T16:28:33.870Z,4
2017-10-22T16:29:46.498Z,0
2017-10-22T16:30:58.807Z,0
2017-10-22T16:32:11.416Z,0
2017-10-22T16:33:23.747Z,0
2017-10-22T16:34:36.389Z,0
2017-10-22T16:35:48.711Z,0
2017-10-22T16:37:01.007Z,0
2017-10-22T16:38:13.004Z,0
2017-10-22T16:39:24.977Z,0
2017-10-22T16:40:36.935Z,0